createdAt,value
2023-05-13T00:00:38.415Z,100503.13
2023-05-13T00:03:06.134Z,100537.97
2023-05-13T00:05:32.986Z,100524.84
2023-05-13T00:08:07.344Z,100525.63
2023-05-13T00:10:34.593Z,100508.75
2023-05-13T00:13:02.175Z,100503.25
2023-05-13T00:15:28.900Z,100532.00
2023-05-13T00:17:55.906Z,100525.63
2023-05-13T00:20:23.112Z,100516.56
2023-05-13T00:22:50.508Z,100495.94
2023-05-13T00:25:17.538Z,100532.44
2023-05-13T00:27:44.216Z,100511.78
2023-05-13T00:30:11.532Z,100473.63
2023-05-13T00:32:38.707Z,100521.75
2023-05-13T00:35:07.286Z,100525.00
2023-05-13T00:37:34.058Z,100497.38
2023-05-13T00:40:01.553Z,100510.97
2023-05-13T00:42:28.558Z,100491.75
2023-05-13T00:44:55.801Z,100530.13
2023-05-13T00:47:22.906Z,100482.00
2023-05-13T00:49:50.198Z,100531.56
2023-05-13T00:52:17.270Z,100527.88
2023-05-13T00:54:43.942Z,100536.00
2023-05-13T00:57:11.107Z,100527.88
2023-05-13T00:59:38.253Z,100532.63
2023-05-13T01:02:22.569Z,100523.88
2023-05-13T01:05:13.851Z,100516.06
2023-05-13T01:07:45.574Z,100533.75
2023-05-13T01:10:35.047Z,100536.50
2023-05-13T01:13:04.355Z,100520.34
2023-05-13T01:15:31.051Z,100530.44
2023-05-13T01:18:06.206Z,100537.63
2023-05-13T01:20:34.014Z,100523.81
2023-05-13T01:23:01.518Z,100501.56
2023-05-13T01:25:29.337Z,100528.59
2023-05-13T01:27:56.670Z,100535.13
2023-05-13T01:30:25.033Z,100536.44
2023-05-13T01:32:52.413Z,100519.22
2023-05-13T01:35:19.561Z,100539.88
2023-05-13T01:37:47.344Z,100525.25
2023-05-13T01:40:28.276Z,100478.28
2023-05-13T01:43:01.856Z,100523.66
2023-05-13T01:45:33.189Z,100512.72
2023-05-13T01:48:02.042Z,100541.31
2023-05-13T01:50:39.610Z,100545.50
2023-05-13T01:53:07.158Z,100534.88
2023-05-13T01:55:34.739Z,100496.50
2023-05-13T01:58:04.070Z,100530.97
2023-05-13T02:00:31.698Z,100537.06
2023-05-13T02:02:58.748Z,100519.00
2023-05-13T02:05:25.724Z,100505.00
2023-05-13T02:07:53.841Z,100511.00
2023-05-13T02:10:21.157Z,100540.38
2023-05-13T02:12:48.386Z,100544.72
2023-05-13T02:15:15.224Z,100532.59
2023-05-13T02:17:42.526Z,100528.34
2023-05-13T02:20:10.176Z,100540.75
2023-05-13T02:22:37.008Z,100530.66
2023-05-13T02:25:07.243Z,100513.13
2023-05-13T02:27:35.507Z,100546.72
2023-05-13T02:30:03.996Z,100532.22
2023-05-13T02:32:34.403Z,100533.22
2023-05-13T02:35:01.925Z,100520.16
2023-05-13T02:37:28.822Z,100492.09
2023-05-13T02:40:02.229Z,100517.78
2023-05-13T02:42:29.893Z,100542.97
2023-05-13T02:44:57.676Z,100546.34
2023-05-13T02:47:26.116Z,100531.59
2023-05-13T02:49:54.326Z,100552.75
2023-05-13T02:52:22.269Z,100545.25
2023-05-13T02:54:49.465Z,100545.44
2023-05-13T02:57:17.196Z,100552.03
2023-05-13T02:59:44.976Z,100549.09
2023-05-13T03:02:12.093Z,100515.00
2023-05-13T03:04:38.944Z,100522.47
2023-05-13T03:07:06.304Z,100548.47
2023-05-13T03:09:35.138Z,100541.47
2023-05-13T03:12:02.217Z,100533.22
2023-05-13T03:14:30.976Z,100559.00
2023-05-13T03:16:58.305Z,100537.44
2023-05-13T03:19:25.874Z,100546.88
2023-05-13T03:21:52.734Z,100540.84
2023-05-13T03:24:19.469Z,100546.44
2023-05-13T03:26:48.330Z,100537.91
2023-05-13T03:29:16.480Z,100545.53
2023-05-13T03:31:43.850Z,100552.38
2023-05-13T03:34:10.678Z,100515.63
2023-05-13T03:36:38.128Z,100536.13
2023-05-13T03:39:05.291Z,100532.22
2023-05-13T03:41:34.090Z,100549.09
2023-05-13T03:44:01.309Z,100561.75
2023-05-13T03:46:28.956Z,100543.84
2023-05-13T03:48:56.703Z,100527.41
2023-05-13T03:51:25.721Z,100547.00
2023-05-13T03:53:52.383Z,100556.84
2023-05-13T03:56:19.080Z,100557.97
2023-05-13T03:58:46.067Z,100542.34
2023-05-13T04:01:13.036Z,100556.94
2023-05-13T04:03:41.249Z,100558.31
2023-05-13T04:06:09.873Z,100551.69
2023-05-13T04:08:37.055Z,100577.69
2023-05-13T04:11:05.025Z,100583.00
2023-05-13T04:13:34.725Z,100567.56
2023-05-13T04:16:01.879Z,100584.84
2023-05-13T04:18:32.139Z,100571.44
2023-05-13T04:20:59.225Z,100561.44
2023-05-13T04:23:26.353Z,100560.38
2023-05-13T04:25:53.703Z,100576.00
2023-05-13T04:28:21.146Z,100592.56
2023-05-13T04:30:49.609Z,100598.06
2023-05-13T04:33:16.946Z,100593.72
2023-05-13T04:35:46.413Z,100578.56
2023-05-13T04:38:13.799Z,100597.94
2023-05-13T04:40:42.039Z,100596.28
2023-05-13T04:43:12.244Z,100598.06
2023-05-13T04:45:48.106Z,100579.19
2023-05-13T04:48:16.201Z,100566.28
2023-05-13T04:50:50.805Z,100608.47
2023-05-13T04:53:19.839Z,100613.81
2023-05-13T04:55:49.681Z,100583.16
2023-05-13T04:58:16.671Z,100587.00
2023-05-13T05:00:43.906Z,100608.94
2023-05-13T05:03:11.345Z,100614.84
2023-05-13T05:05:39.895Z,100619.22
2023-05-13T05:08:08.765Z,100617.28
2023-05-13T05:10:37.094Z,100622.25
2023-05-13T05:13:04.229Z,100600.22
2023-05-13T05:15:33.018Z,100626.50
2023-05-13T05:18:01.847Z,100622.16
2023-05-13T05:20:28.594Z,100640.97
2023-05-13T05:22:58.546Z,100609.44
2023-05-13T05:25:26.749Z,100635.47
2023-05-13T05:27:53.946Z,100637.84
2023-05-13T05:30:21.550Z,100641.81
2023-05-13T05:32:56.781Z,100621.91
2023-05-13T05:35:25.724Z,100648.25
2023-05-13T05:37:52.929Z,100629.06
2023-05-13T05:40:21.830Z,100621.91
2023-05-13T05:42:50.997Z,100645.53
2023-05-13T05:45:17.845Z,100646.66
2023-05-13T05:47:45.146Z,100648.78
2023-05-13T05:50:12.512Z,100649.19
2023-05-13T05:52:40.641Z,100653.88
2023-05-13T05:55:08.179Z,100648.59
2023-05-13T05:57:35.115Z,100660.13
2023-05-13T06:00:02.337Z,100666.41
2023-05-13T06:02:30.309Z,100661.41
2023-05-13T06:04:57.226Z,100662.34
2023-05-13T06:07:24.400Z,100653.59
2023-05-13T06:09:51.926Z,100629.47
2023-05-13T06:12:19.087Z,100661.81
2023-05-13T06:14:46.134Z,100662.88
2023-05-13T06:17:15.199Z,100656.75
2023-05-13T06:19:42.773Z,100664.47
2023-05-13T06:22:10.753Z,100662.88
2023-05-13T06:24:38.212Z,100637.22
2023-05-13T06:27:07.171Z,100665.88
2023-05-13T06:29:35.034Z,100641.88
2023-05-13T06:32:01.735Z,100662.53
2023-05-13T06:34:29.439Z,100655.59
2023-05-13T06:36:56.830Z,100647.78
2023-05-13T06:39:25.291Z,100617.00
2023-05-13T06:41:52.521Z,100655.78
2023-05-13T06:44:21.944Z,100634.13
2023-05-13T06:46:49.254Z,100656.94
2023-05-13T06:49:16.441Z,100654.66
2023-05-13T06:51:43.092Z,100642.06
2023-05-13T06:54:10.190Z,100654.56
2023-05-13T06:56:37.738Z,100652.44
2023-05-13T06:59:05.889Z,100635.94
2023-05-13T07:01:33.425Z,100646.19
2023-05-13T07:04:01.267Z,100628.41
2023-05-13T07:06:27.984Z,100646.31
2023-05-13T07:08:57.348Z,100659.50
2023-05-13T07:11:24.471Z,100661.78
2023-05-13T07:13:51.548Z,100660.84
2023-05-13T07:16:18.530Z,100665.19
2023-05-13T07:18:45.799Z,100622.09
2023-05-13T07:21:14.633Z,100651.59
2023-05-13T07:23:43.655Z,100645.56
2023-05-13T07:26:11.213Z,100666.16
2023-05-13T07:28:38.246Z,100660.16
2023-05-13T07:31:05.460Z,100626.84
2023-05-13T07:33:32.330Z,100614.22
2023-05-13T07:35:59.333Z,100646.78
2023-05-13T07:38:26.693Z,100636.28
2023-05-13T07:40:53.668Z,100671.41
2023-05-13T07:43:24.225Z,100652.69
2023-05-13T07:45:51.461Z,100671.72
2023-05-13T07:48:18.887Z,100642.91
2023-05-13T07:50:46.629Z,100619.41
2023-05-13T07:53:13.713Z,100672.22
2023-05-13T07:55:42.880Z,100656.75
2023-05-13T07:58:09.608Z,100648.31
2023-05-13T08:00:36.881Z,100685.25
2023-05-13T08:03:04.128Z,100606.88
2023-05-13T08:05:31.539Z,100627.63
2023-05-13T08:07:59.669Z,100681.75
2023-05-13T08:10:26.517Z,100614.84
2023-05-13T08:12:57.729Z,100655.91
2023-05-13T08:15:25.093Z,100672.81
2023-05-13T08:17:54.134Z,100666.19
2023-05-13T08:20:27.040Z,100658.03
2023-05-13T08:22:54.437Z,100647.34
2023-05-13T08:25:21.934Z,100661.81
2023-05-13T08:27:49.394Z,100648.78
2023-05-13T08:30:17.291Z,100672.16
2023-05-13T08:32:44.051Z,100669.72
2023-05-13T08:35:10.882Z,100674.44
2023-05-13T08:37:38.049Z,100641.97
2023-05-13T08:40:05.490Z,100651.03
2023-05-13T08:42:38.039Z,100647.66
2023-05-13T08:45:08.506Z,100642.69
2023-05-13T08:47:43.226Z,100659.69
2023-05-13T08:50:10.759Z,100659.16
2023-05-13T08:52:37.780Z,100651.25
2023-05-13T08:55:07.161Z,100649.16
2023-05-13T08:57:34.544Z,100645.94
2023-05-13T09:00:01.424Z,100659.97
2023-05-13T09:02:28.544Z,100653.16
2023-05-13T09:04:56.555Z,100661.59
2023-05-13T09:07:23.364Z,100673.41
2023-05-13T09:09:50.723Z,100652.34
2023-05-13T09:12:42.887Z,100667.78
2023-05-13T09:15:10.844Z,100672.09
2023-05-13T09:17:42.985Z,100666.06
2023-05-13T09:20:12.080Z,100657.34
2023-05-13T09:23:04.047Z,100667.91
2023-05-13T09:25:32.109Z,100639.63
2023-05-13T09:28:02.454Z,100670.47
2023-05-13T09:30:33.380Z,100635.59
2023-05-13T09:33:19.796Z,100629.25
2023-05-13T09:35:51.164Z,100639.81
2023-05-13T09:38:19.550Z,100657.34
2023-05-13T09:40:53.401Z,100646.25
2023-05-13T09:43:22.518Z,100659.28
2023-05-13T09:45:56.052Z,100663.66
2023-05-13T09:48:25.401Z,100657.75
2023-05-13T09:50:53.407Z,100655.50
2023-05-13T09:53:23.345Z,100650.84
2023-05-13T09:55:52.308Z,100661.63
2023-05-13T09:58:20.407Z,100640.97
2023-05-13T10:00:49.191Z,100657.38
2023-05-13T10:03:16.789Z,100654.31
2023-05-13T10:05:43.683Z,100666.28
2023-05-13T10:08:12.154Z,100631.09
2023-05-13T10:10:42.047Z,100644.66
2023-05-13T10:13:11.146Z,100652.41
2023-05-13T10:15:51.731Z,100644.44
2023-05-13T10:18:19.445Z,100646.47
2023-05-13T10:20:47.558Z,100616.19
2023-05-13T10:23:14.568Z,100652.16
2023-05-13T10:25:41.987Z,100637.69
2023-05-13T10:28:08.609Z,100636.59
2023-05-13T10:30:35.935Z,100640.22
2023-05-13T10:33:03.481Z,100618.88
2023-05-13T10:35:35.407Z,100644.66
2023-05-13T10:38:30.879Z,100645.03
2023-05-13T10:41:20.716Z,100647.63
2023-05-13T10:43:48.217Z,100635.13
2023-05-13T10:46:15.538Z,100638.91
2023-05-13T10:48:47.343Z,100641.50
2023-05-13T10:51:15.310Z,100643.13
2023-05-13T10:53:47.726Z,100647.38
2023-05-13T10:56:15.213Z,100614.16
2023-05-13T10:58:42.353Z,100620.88
2023-05-13T11:01:30.187Z,100634.69
2023-05-13T11:04:05.026Z,100616.19
2023-05-13T11:06:42.226Z,100619.97
2023-05-13T11:09:16.078Z,100632.63
2023-05-13T11:11:47.615Z,100605.31
2023-05-13T11:14:14.415Z,100627.13
2023-05-13T11:17:07.124Z,100622.69
2023-05-13T11:19:38.003Z,100624.56
2023-05-13T11:22:12.601Z,100628.63
2023-05-13T11:24:40.466Z,100557.94
2023-05-13T11:27:20.577Z,100614.34
2023-05-13T11:29:55.764Z,100615.34
2023-05-13T11:32:50.852Z,100617.38
2023-05-13T11:35:21.344Z,100603.41
2023-05-13T11:37:51.588Z,100580.19
2023-05-13T11:40:27.497Z,100605.22
2023-05-13T11:42:55.627Z,100567.56
2023-05-13T11:45:24.364Z,100574.22
2023-05-13T11:47:52.296Z,100558.69
2023-05-13T11:50:22.435Z,100559.50
2023-05-13T11:52:53.234Z,100544.25
2023-05-13T11:55:27.162Z,100553.66
2023-05-13T11:57:54.481Z,100600.50
2023-05-13T12:00:31.200Z,100576.16
2023-05-13T12:02:58.716Z,100588.16
2023-05-13T12:05:26.293Z,100599.22
2023-05-13T12:07:57.334Z,100592.06
2023-05-13T12:10:25.067Z,100549.66
2023-05-13T12:12:51.879Z,100576.06
2023-05-13T12:15:19.659Z,100589.66
2023-05-13T12:17:48.641Z,100573.44
2023-05-13T12:20:24.105Z,100515.50
2023-05-13T12:22:52.908Z,100590.69
2023-05-13T12:25:48.113Z,100605.94
2023-05-13T12:28:20.666Z,100598.16
2023-05-13T12:30:54.276Z,100597.50
2023-05-13T12:33:24.492Z,100585.84
2023-05-13T12:35:52.885Z,100586.66
2023-05-13T12:38:22.561Z,100555.16
2023-05-13T12:40:49.856Z,100594.13
2023-05-13T12:43:17.779Z,100587.47
2023-05-13T12:45:45.930Z,100583.56
2023-05-13T12:48:14.419Z,100597.84
2023-05-13T12:50:42.002Z,100558.56
2023-05-13T12:53:08.869Z,100574.78
2023-05-13T12:55:40.114Z,100594.28
2023-05-13T12:58:07.628Z,100567.00
2023-05-13T13:00:34.592Z,100542.34
2023-05-13T13:03:01.577Z,100583.72
2023-05-13T13:05:29.301Z,100601.25
2023-05-13T13:07:56.138Z,100584.53
2023-05-13T13:10:25.070Z,100510.34
2023-05-13T13:12:52.369Z,100575.63
2023-05-13T13:15:20.072Z,100597.38
2023-05-13T13:17:47.045Z,100566.38
2023-05-13T13:20:14.265Z,100552.44
2023-05-13T13:22:41.363Z,100588.78
2023-05-13T13:25:10.995Z,100565.59
2023-05-13T13:27:38.672Z,100524.69
2023-05-13T13:30:06.684Z,100519.88
2023-05-13T13:32:35.725Z,100556.06
2023-05-13T13:35:05.738Z,100508.69
2023-05-13T13:37:32.688Z,100520.19
2023-05-13T13:39:59.717Z,100564.06
2023-05-13T13:42:40.073Z,100556.22
2023-05-13T13:45:10.810Z,100570.84
2023-05-13T13:47:38.740Z,100514.06
2023-05-13T13:50:07.819Z,100530.28
2023-05-13T13:52:36.405Z,100556.72
2023-05-13T13:55:03.363Z,100510.66
2023-05-13T13:57:30.104Z,100570.19
2023-05-13T13:59:56.826Z,100552.03
2023-05-13T14:02:23.697Z,100542.94
2023-05-13T14:04:50.882Z,100559.66
2023-05-13T14:07:17.634Z,100552.19
2023-05-13T14:09:44.412Z,100567.13
2023-05-13T14:12:11.193Z,100506.13
2023-05-13T14:14:37.915Z,100535.66
2023-05-13T14:17:04.885Z,100560.81
2023-05-13T14:19:32.286Z,100542.47
2023-05-13T14:21:59.306Z,100557.88
2023-05-13T14:24:27.688Z,100561.44
2023-05-13T14:26:54.474Z,100562.75
2023-05-13T14:29:21.847Z,100560.50
2023-05-13T14:31:49.050Z,100556.91
2023-05-13T14:34:16.676Z,100555.63
2023-05-13T14:36:43.871Z,100549.78
2023-05-13T14:39:11.179Z,100561.47
2023-05-13T14:41:40.906Z,100528.19
2023-05-13T14:44:07.953Z,100507.28
2023-05-13T14:46:37.156Z,100460.88
2023-05-13T14:49:04.025Z,100527.06
2023-05-13T14:51:30.732Z,100537.94
2023-05-13T14:53:57.817Z,100539.72
2023-05-13T14:56:25.832Z,100548.47
2023-05-13T14:58:53.883Z,100549.44
2023-05-13T15:01:21.552Z,100504.38
2023-05-13T15:03:49.391Z,100526.25
2023-05-13T15:06:16.471Z,100508.91
2023-05-13T15:08:44.608Z,100495.44
2023-05-13T15:11:13.272Z,100499.47
2023-05-13T15:13:40.066Z,100500.63
2023-05-13T15:16:07.591Z,100533.91
2023-05-13T15:18:34.632Z,100533.91
2023-05-13T15:21:01.795Z,100509.69
2023-05-13T15:23:30.391Z,100455.72
2023-05-13T15:25:58.316Z,100527.75
2023-05-13T15:28:26.218Z,100532.09
2023-05-13T15:30:53.246Z,100507.28
2023-05-13T15:33:21.032Z,100520.75
2023-05-13T15:35:48.047Z,100462.03
2023-05-13T15:38:17.312Z,100412.91
2023-05-13T15:40:44.388Z,100423.16
2023-05-13T15:43:14.583Z,100397.16
2023-05-13T15:45:41.583Z,100470.44
2023-05-13T15:48:08.585Z,100526.41
2023-05-13T15:50:35.446Z,100407.72
2023-05-13T15:53:02.304Z,100420.22
2023-05-13T15:55:33.229Z,100430.91
2023-05-13T15:58:00.374Z,100464.13
2023-05-13T16:00:27.986Z,100511.00
2023-05-13T16:02:57.311Z,100452.81
2023-05-13T16:05:24.382Z,100495.59
2023-05-13T16:07:51.478Z,100450.53
2023-05-13T16:10:19.398Z,100428.19
2023-05-13T16:12:48.700Z,100471.75
2023-05-13T16:15:21.241Z,100484.59
2023-05-13T16:17:52.136Z,100419.06
2023-05-13T16:20:19.206Z,100444.22
2023-05-13T16:22:46.299Z,100471.75
2023-05-13T16:25:13.583Z,100482.78
2023-05-13T16:27:43.332Z,100395.25
2023-05-13T16:30:13.443Z,100482.94
2023-05-13T16:32:40.471Z,100423.28
2023-05-13T16:35:08.361Z,100507.28
2023-05-13T16:37:36.237Z,100417.63
2023-05-13T16:40:04.322Z,100439.50
2023-05-13T16:42:31.324Z,100455.38
2023-05-13T16:44:58.112Z,100463.16
2023-05-13T16:47:24.987Z,100449.38
2023-05-13T16:49:52.489Z,100490.56
2023-05-13T16:52:19.429Z,100473.19
2023-05-13T16:54:46.735Z,100487.81
2023-05-13T16:57:17.801Z,100456.19
2023-05-13T16:59:44.786Z,100467.53
2023-05-13T17:02:11.789Z,100417.28
2023-05-13T17:04:40.808Z,100456.34
2023-05-13T17:07:07.933Z,100419.06
2023-05-13T17:09:35.237Z,100482.28
2023-05-13T17:12:02.246Z,100441.75
2023-05-13T17:14:30.405Z,100399.47
2023-05-13T17:16:57.677Z,100445.00
2023-05-13T17:19:27.572Z,100438.84
2023-05-13T17:21:54.819Z,100413.41
2023-05-13T17:24:24.629Z,100410.63
2023-05-13T17:26:51.637Z,100414.03
2023-05-13T17:29:18.780Z,100447.94
2023-05-13T17:31:46.005Z,100456.34
2023-05-13T17:34:14.034Z,100413.25
2023-05-13T17:36:41.400Z,100459.59
2023-05-13T17:39:12.036Z,100447.63
2023-05-13T17:41:38.982Z,100458.81
2023-05-13T17:44:05.921Z,100418.13
2023-05-13T17:46:32.765Z,100449.88
2023-05-13T17:48:59.832Z,100423.94
2023-05-13T17:51:27.178Z,100446.94
2023-05-13T17:53:54.595Z,100423.53
2023-05-13T17:56:21.784Z,100467.84
2023-05-13T17:58:48.836Z,100491.38
2023-05-13T18:01:15.863Z,100427.63
2023-05-13T18:03:43.238Z,100450.31
2023-05-13T18:06:10.638Z,100482.78
2023-05-13T18:08:37.803Z,100464.94
2023-05-13T18:11:04.664Z,100524.59
2023-05-13T18:13:32.725Z,100495.41
2023-05-13T18:16:01.011Z,100481.94
2023-05-13T18:18:27.974Z,100458.91
2023-05-13T18:20:54.806Z,100436.97
2023-05-13T18:23:21.789Z,100451.41
2023-05-13T18:25:55.567Z,100502.69
2023-05-13T18:28:23.222Z,100464.41
2023-05-13T18:30:50.513Z,100434.56
2023-05-13T18:33:20.230Z,100438.44
2023-05-13T18:35:47.284Z,100487.75
2023-05-13T18:38:14.564Z,100478.16
2023-05-13T18:40:42.287Z,100440.34
2023-05-13T18:43:09.221Z,100407.28
2023-05-13T18:45:36.188Z,100510.59
2023-05-13T18:48:03.628Z,100490.31
2023-05-13T18:50:30.902Z,100556.19
2023-05-13T18:53:00.296Z,100544.19
2023-05-13T18:55:27.334Z,100510.09
2023-05-13T18:57:54.456Z,100469.03
2023-05-13T19:00:21.820Z,100509.59
2023-05-13T19:02:49.155Z,100502.56
2023-05-13T19:05:20.286Z,100480.50
2023-05-13T19:07:50.101Z,100500.78
2023-05-13T19:10:19.614Z,100546.91
2023-05-13T19:12:49.714Z,100493.13
2023-05-13T19:15:16.927Z,100558.88
2023-05-13T19:17:43.851Z,100537.38
2023-05-13T19:20:11.432Z,100590.50
2023-05-13T19:22:41.055Z,100525.38
2023-05-13T19:25:11.136Z,100497.00
2023-05-13T19:27:38.190Z,100525.69
2023-05-13T19:30:06.194Z,100575.88
2023-05-13T19:32:33.125Z,100534.41
2023-05-13T19:35:03.144Z,100539.91
2023-05-13T19:37:31.066Z,100547.69
2023-05-13T19:40:03.195Z,100494.53
2023-05-13T19:42:30.077Z,100583.00
2023-05-13T19:44:57.895Z,100578.59
2023-05-13T19:47:34.753Z,100552.91
2023-05-13T19:50:04.864Z,100540.75
2023-05-13T19:52:38.923Z,100580.34
2023-05-13T19:55:07.745Z,100537.31
2023-05-13T19:57:36.063Z,100521.88
2023-05-13T20:00:11.978Z,100554.69
2023-05-13T20:02:39.344Z,100559.38
2023-05-13T20:05:08.996Z,100581.94
2023-05-13T20:07:38.248Z,100561.91
2023-05-13T20:10:08.858Z,100560.31
2023-05-13T20:12:36.177Z,100553.50
2023-05-13T20:15:03.605Z,100560.81
2023-05-13T20:17:31.365Z,100582.94
2023-05-13T20:19:58.665Z,100550.63
2023-05-13T20:22:25.699Z,100584.44
2023-05-13T20:24:55.401Z,100580.03
2023-05-13T20:27:24.720Z,100495.09
2023-05-13T20:29:52.273Z,100553.53
2023-05-13T20:32:24.914Z,100605.03
2023-05-13T20:34:53.130Z,100560.47
2023-05-13T20:37:23.392Z,100621.91
2023-05-13T20:39:51.066Z,100538.44
2023-05-13T20:42:22.805Z,100587.91
2023-05-13T20:44:50.854Z,100563.06
2023-05-13T20:47:18.521Z,100517.34
2023-05-13T20:49:45.710Z,100574.16
2023-05-13T20:52:12.688Z,100559.56
2023-05-13T20:54:39.536Z,100570.91
2023-05-13T20:57:07.575Z,100523.03
2023-05-13T20:59:35.572Z,100548.16
2023-05-13T21:02:02.775Z,100606.81
2023-05-13T21:04:31.144Z,100528.81
2023-05-13T21:06:57.946Z,100575.78
2023-05-13T21:09:25.071Z,100593.34
2023-05-13T21:11:52.133Z,100593.16
2023-05-13T21:14:19.375Z,100549.81
2023-05-13T21:16:46.558Z,100573.03
2023-05-13T21:19:23.251Z,100609.75
2023-05-13T21:21:50.262Z,100569.44
2023-05-13T21:24:18.602Z,100548.16
2023-05-13T21:26:46.098Z,100595.09
2023-05-13T21:29:13.038Z,100618.16
2023-05-13T21:31:40.582Z,100607.66
2023-05-13T21:34:07.449Z,100550.63
2023-05-13T21:36:39.037Z,100568.63
2023-05-13T21:39:07.046Z,100588.00
2023-05-13T21:41:36.262Z,100530.81
2023-05-13T21:44:03.433Z,100477.56
2023-05-13T21:46:30.425Z,100583.13
2023-05-13T21:49:01.596Z,100561.81
2023-05-13T21:51:28.653Z,100582.31
2023-05-13T21:53:55.809Z,100572.03
2023-05-13T21:56:22.611Z,100576.66
2023-05-13T21:58:49.936Z,100597.91
2023-05-13T22:01:16.873Z,100548.53
2023-05-13T22:03:43.675Z,100563.13
2023-05-13T22:06:10.721Z,100568.53
2023-05-13T22:08:37.787Z,100582.81
2023-05-13T22:11:06.866Z,100517.25
2023-05-13T22:13:34.053Z,100567.91
2023-05-13T22:16:02.104Z,100517.06
2023-05-13T22:18:29.761Z,100521.59
2023-05-13T22:20:57.800Z,100504.97
2023-05-13T22:23:24.602Z,100589.44
2023-05-13T22:25:52.236Z,100563.75
2023-05-13T22:28:20.191Z,100536.81
2023-05-13T22:30:51.400Z,100519.75
2023-05-13T22:33:19.108Z,100543.00
2023-05-13T22:35:47.263Z,100568.47
2023-05-13T22:38:14.342Z,100546.72
2023-05-13T22:40:42.417Z,100545.91
2023-05-13T22:43:10.366Z,100564.22
2023-05-13T22:45:37.753Z,100533.84
2023-05-13T22:48:05.161Z,100567.81
2023-05-13T22:50:33.415Z,100507.09
2023-05-13T22:53:00.657Z,100570.09
2023-05-13T22:55:27.413Z,100516.19
2023-05-13T22:57:55.138Z,100581.28
2023-05-13T23:00:25.403Z,100545.56
2023-05-13T23:02:53.013Z,100544.94
2023-05-13T23:05:21.164Z,100526.75
2023-05-13T23:07:49.198Z,100532.09
2023-05-13T23:10:16.180Z,100563.94
2023-05-13T23:12:43.817Z,100535.25
2023-05-13T23:15:11.795Z,100513.81
2023-05-13T23:17:39.086Z,100518.34
2023-05-13T23:20:08.650Z,100514.16
2023-05-13T23:22:35.437Z,100543.66
2023-05-13T23:25:02.241Z,100534.91
2023-05-13T23:27:31.462Z,100551.81
2023-05-13T23:29:58.903Z,100481.84
2023-05-13T23:32:26.370Z,100520.47
2023-05-13T23:34:53.473Z,100506.69
2023-05-13T23:37:22.163Z,100446.88
2023-05-13T23:39:50.021Z,100507.13
2023-05-13T23:42:17.766Z,100516.25
2023-05-13T23:44:44.816Z,100429.75
2023-05-13T23:47:12.171Z,100492.88
2023-05-13T23:49:39.223Z,100443.34
2023-05-13T23:52:06.261Z,100494.06
2023-05-13T23:54:33.099Z,100489.19
2023-05-13T23:56:59.803Z,100478.00
2023-05-13T23:59:26.563Z,100491.94
